createdAt,value
2022-12-31T00:00:57.973Z,101346.59
2022-12-31T00:04:01.127Z,101340.53
2022-12-31T00:07:04.629Z,101332.81
2022-12-31T00:10:10.824Z,101342.22
2022-12-31T00:13:15.882Z,101338.50
2022-12-31T00:16:21.775Z,101348.16
2022-12-31T00:19:24.717Z,101342.09
2022-12-31T00:22:27.757Z,101346.38
2022-12-31T00:25:31.011Z,101344.56
2022-12-31T00:28:35.935Z,101347.16
2022-12-31T00:31:40.214Z,101347.38
2022-12-31T00:34:43.596Z,101353.31
2022-12-31T00:37:46.342Z,101356.81
2022-12-31T00:40:53.183Z,101359.37
2022-12-31T00:43:56.249Z,101344.81
2022-12-31T00:46:59.473Z,101356.69
2022-12-31T00:50:02.243Z,101362.75
2022-12-31T00:53:05.374Z,101367.69
2022-12-31T00:56:12.726Z,101374.75
2022-12-31T00:59:16.769Z,101375.41
2022-12-31T01:02:21.929Z,101383.94
2022-12-31T01:05:25.102Z,101375.41
2022-12-31T01:08:31.216Z,101378.09
2022-12-31T01:11:34.948Z,101386.88
2022-12-31T01:14:38.278Z,101386.97
2022-12-31T01:17:41.346Z,101380.13
2022-12-31T01:20:44.773Z,101379.25
2022-12-31T01:23:48.048Z,101374.84
2022-12-31T01:26:55.997Z,101376.66
2022-12-31T01:30:03.729Z,101387.09
2022-12-31T01:33:07.079Z,101379.34
2022-12-31T01:36:14.113Z,101380.25
2022-12-31T01:39:17.042Z,101382.84
2022-12-31T01:42:22.000Z,101381.03
2022-12-31T01:45:25.126Z,101385.28
2022-12-31T01:48:28.876Z,101390.44
2022-12-31T01:51:34.508Z,101389.44
2022-12-31T01:54:44.739Z,101383.72
2022-12-31T01:57:51.143Z,101379.59
2022-12-31T02:00:55.251Z,101380.38
2022-12-31T02:04:04.478Z,101389.00
2022-12-31T02:07:09.128Z,101382.16
2022-12-31T02:10:13.397Z,101380.47
2022-12-31T02:13:16.442Z,101383.06
2022-12-31T02:16:31.206Z,101383.97
2022-12-31T02:19:52.165Z,101394.16
2022-12-31T02:23:26.411Z,101387.31
2022-12-31T02:26:48.129Z,101392.38
2022-12-31T02:30:01.868Z,101387.88
2022-12-31T02:33:04.942Z,101388.78
2022-12-31T02:36:21.364Z,101386.31
2022-12-31T02:39:28.621Z,101388.22
2022-12-31T02:42:32.937Z,101391.69
2022-12-31T02:45:48.020Z,101388.56
2022-12-31T02:49:03.474Z,101396.06
2022-12-31T02:52:21.882Z,101395.72
2022-12-31T02:55:46.303Z,101401.78
2022-12-31T02:59:43.608Z,101397.41
2022-12-31T03:02:48.647Z,101398.31
2022-12-31T03:05:51.519Z,101391.69
2022-12-31T03:09:13.208Z,101386.06
2022-12-31T03:12:36.553Z,101375.66
2022-12-31T03:15:39.435Z,101380.69
2022-12-31T03:19:01.125Z,101370.38
2022-12-31T03:22:23.041Z,101377.31
2022-12-31T03:25:36.124Z,101367.00
2022-12-31T03:28:41.794Z,101367.12
2022-12-31T03:31:45.220Z,101358.47
2022-12-31T03:34:48.396Z,101374.84
2022-12-31T03:37:52.174Z,101382.03
2022-12-31T03:40:56.278Z,101379.34
2022-12-31T03:43:58.812Z,101380.59
2022-12-31T03:47:02.841Z,101377.66
2022-12-31T03:50:08.591Z,101371.06
2022-12-31T03:53:11.854Z,101374.31
2022-12-31T03:56:14.365Z,101376.00
2022-12-31T03:59:17.759Z,101388.00
2022-12-31T04:02:28.266Z,101378.00
2022-12-31T04:05:34.525Z,101363.31
2022-12-31T04:08:37.872Z,101379.69
2022-12-31T04:11:40.876Z,101370.38
2022-12-31T04:14:43.702Z,101378.00
2022-12-31T04:17:48.264Z,101381.50
2022-12-31T04:20:52.994Z,101387.56
2022-12-31T04:23:56.316Z,101372.84
2022-12-31T04:27:07.021Z,101378.00
2022-12-31T04:30:14.196Z,101382.37
2022-12-31T04:33:17.125Z,101380.38
2022-12-31T04:36:20.576Z,101381.16
2022-12-31T04:39:25.022Z,101389.00
2022-12-31T04:42:31.608Z,101399.56
2022-12-31T04:45:34.989Z,101408.97
2022-12-31T04:48:38.072Z,101408.06
2022-12-31T04:51:40.834Z,101408.19
2022-12-31T04:54:45.630Z,101410.66
2022-12-31T04:57:50.197Z,101413.00
2022-12-31T05:00:55.462Z,101416.59
2022-12-31T05:03:58.830Z,101424.00
2022-12-31T05:07:03.449Z,101424.88
2022-12-31T05:10:06.852Z,101437.00
2022-12-31T05:13:11.604Z,101438.03
2022-12-31T05:16:14.789Z,101441.25
2022-12-31T05:19:18.021Z,101442.06
2022-12-31T05:22:29.712Z,101444.75
2022-12-31T05:25:33.371Z,101449.00
2022-12-31T05:28:37.121Z,101455.19
2022-12-31T05:31:41.779Z,101451.69
2022-12-31T05:34:44.642Z,101458.00
2022-12-31T05:37:49.082Z,101464.94
2022-12-31T05:41:05.975Z,101466.41
2022-12-31T05:44:10.739Z,101475.28
2022-12-31T05:47:17.551Z,101480.97
2022-12-31T05:50:20.708Z,101485.47
2022-12-31T05:53:29.835Z,101492.44
2022-12-31T05:56:33.018Z,101500.72
2022-12-31T05:59:37.041Z,101498.91
2022-12-31T06:02:49.629Z,101500.06
2022-12-31T06:05:53.902Z,101496.25
2022-12-31T06:08:56.990Z,101506.47
2022-12-31T06:12:06.719Z,101502.75
2022-12-31T06:15:11.436Z,101503.41
2022-12-31T06:18:15.871Z,101502.62
2022-12-31T06:21:20.939Z,101498.25
2022-12-31T06:24:26.021Z,101495.91
2022-12-31T06:27:31.041Z,101497.59
2022-12-31T06:30:34.470Z,101502.62
2022-12-31T06:33:47.023Z,101497.72
2022-12-31T06:36:54.654Z,101496.94
2022-12-31T06:40:05.519Z,101507.47
2022-12-31T06:43:09.775Z,101513.12
2022-12-31T06:46:15.824Z,101512.88
2022-12-31T06:49:19.677Z,101524.53
2022-12-31T06:52:23.451Z,101524.66
2022-12-31T06:55:28.715Z,101517.69
2022-12-31T06:58:36.574Z,101524.75
2022-12-31T07:02:04.901Z,101516.13
2022-12-31T07:05:37.157Z,101526.78
2022-12-31T07:09:08.291Z,101526.91
2022-12-31T07:12:29.926Z,101526.69
2022-12-31T07:16:01.564Z,101528.34
2022-12-31T07:19:57.915Z,101528.13
2022-12-31T07:23:02.035Z,101533.28
2022-12-31T07:26:36.525Z,101542.94
2022-12-31T07:29:51.376Z,101549.47
2022-12-31T07:33:16.611Z,101553.19
2022-12-31T07:36:59.787Z,101563.09
2022-12-31T07:40:57.713Z,101549.75
2022-12-31T07:44:11.286Z,101550.19
2022-12-31T07:47:30.795Z,101549.88
2022-12-31T07:50:37.500Z,101555.72
2022-12-31T07:53:49.437Z,101547.44
2022-12-31T07:57:04.475Z,101555.69
2022-12-31T08:00:16.856Z,101574.03
2022-12-31T08:03:39.767Z,101584.91
2022-12-31T08:07:01.688Z,101576.84
2022-12-31T08:10:19.091Z,101564.19
2022-12-31T08:13:32.561Z,101564.66
2022-12-31T08:16:37.759Z,101593.09
2022-12-31T08:19:51.600Z,101581.19
2022-12-31T08:23:18.763Z,101587.84
2022-12-31T08:26:43.531Z,101590.09
2022-12-31T08:29:59.503Z,101594.81
2022-12-31T08:33:46.531Z,101601.09
2022-12-31T08:37:20.422Z,101616.84
2022-12-31T08:40:51.223Z,101624.06
2022-12-31T08:44:34.622Z,101643.56
2022-12-31T08:47:57.995Z,101654.25
2022-12-31T08:51:27.704Z,101654.47
2022-12-31T08:54:43.541Z,101637.94
2022-12-31T08:57:56.099Z,101641.84
2022-12-31T09:01:16.766Z,101627.91
2022-12-31T09:04:43.548Z,101639.47
2022-12-31T09:08:14.621Z,101652.44
2022-12-31T09:11:31.141Z,101644.06
2022-12-31T09:14:47.580Z,101641.94
2022-12-31T09:18:05.435Z,101635.56
2022-12-31T09:21:15.601Z,101654.84
2022-12-31T09:24:29.394Z,101642.63
2022-12-31T09:27:48.413Z,101642.84
2022-12-31T09:31:04.836Z,101635.44
2022-12-31T09:34:25.565Z,101644.38
2022-12-31T09:38:12.602Z,101637.88
2022-12-31T09:41:43.027Z,101628.53
2022-12-31T09:45:25.802Z,101609.75
2022-12-31T09:49:05.653Z,101609.75
2022-12-31T09:52:58.414Z,101599.59
2022-12-31T09:56:32.437Z,101604.13
2022-12-31T10:00:09.744Z,101599.44
2022-12-31T10:03:57.612Z,101599.78
2022-12-31T10:07:27.440Z,101598.69
2022-12-31T10:10:56.581Z,101577.66
2022-12-31T10:14:47.374Z,101570.88
2022-12-31T10:18:27.783Z,101578.59
2022-12-31T10:22:05.572Z,101577.91
2022-12-31T10:25:39.164Z,101580.78
2022-12-31T10:28:55.425Z,101582.56
2022-12-31T10:32:26.250Z,101573.69
2022-12-31T10:35:45.515Z,101583.47
2022-12-31T10:39:15.395Z,101597.62
2022-12-31T10:43:11.591Z,101597.00
2022-12-31T10:46:34.673Z,101598.34
2022-12-31T10:49:52.612Z,101595.19
2022-12-31T10:53:33.943Z,101580.94
2022-12-31T10:57:46.440Z,101578.44
2022-12-31T11:01:13.620Z,101555.25
2022-12-31T11:04:52.660Z,101571.66
2022-12-31T11:08:25.678Z,101585.28
2022-12-31T11:11:46.407Z,101577.69
2022-12-31T11:15:18.472Z,101578.66
2022-12-31T11:18:44.519Z,101569.31
2022-12-31T11:22:10.655Z,101564.75
2022-12-31T11:25:33.857Z,101563.94
2022-12-31T11:29:18.499Z,101555.97
2022-12-31T11:32:30.436Z,101556.13
2022-12-31T11:36:07.877Z,101556.81
2022-12-31T11:39:44.519Z,101562.31
2022-12-31T11:43:09.630Z,101564.12
2022-12-31T11:46:37.923Z,101545.19
2022-12-31T11:49:45.056Z,101543.50
2022-12-31T11:53:09.873Z,101562.37
2022-12-31T11:56:28.478Z,101558.59
2022-12-31T11:59:39.103Z,101557.78
2022-12-31T12:02:58.742Z,101553.44
2022-12-31T12:06:20.077Z,101543.88
2022-12-31T12:09:35.463Z,101541.97
2022-12-31T12:12:46.210Z,101561.09
2022-12-31T12:16:13.730Z,101568.00
2022-12-31T12:19:21.509Z,101563.22
2022-12-31T12:22:27.749Z,101558.53
2022-12-31T12:25:41.068Z,101558.84
2022-12-31T12:28:52.134Z,101555.25
2022-12-31T12:32:19.581Z,101563.41
2022-12-31T12:35:27.751Z,101554.47
2022-12-31T12:38:49.508Z,101553.97
2022-12-31T12:42:04.646Z,101562.66
2022-12-31T12:45:23.473Z,101559.84
2022-12-31T12:48:40.204Z,101568.94
2022-12-31T12:51:50.432Z,101567.44
2022-12-31T12:55:22.684Z,101552.25
2022-12-31T12:58:58.560Z,101542.19
2022-12-31T13:02:18.663Z,101539.50
2022-12-31T13:06:02.401Z,101540.28
2022-12-31T13:09:47.511Z,101541.00
2022-12-31T13:16:51.475Z,101539.88
2022-12-31T13:20:11.069Z,101536.19
2022-12-31T13:23:37.770Z,101553.56
2022-12-31T13:27:17.578Z,101545.97
2022-12-31T13:30:31.471Z,101564.22
2022-12-31T13:33:55.953Z,101560.22
2022-12-31T13:37:38.223Z,101566.31
2022-12-31T13:40:59.502Z,101559.00
2022-12-31T13:44:35.523Z,101578.41
2022-12-31T13:47:54.440Z,101576.47
2022-12-31T13:51:14.522Z,101586.06
2022-12-31T13:54:41.385Z,101572.97
2022-12-31T13:57:58.600Z,101583.38
2022-12-31T14:01:22.690Z,101580.78
2022-12-31T14:05:00.419Z,101575.59
2022-12-31T14:08:17.827Z,101567.59
2022-12-31T14:11:32.543Z,101565.59
2022-12-31T14:15:00.831Z,101561.03
2022-12-31T14:18:27.629Z,101563.62
2022-12-31T14:21:56.763Z,101570.31
2022-12-31T14:25:13.563Z,101566.63
2022-12-31T14:28:31.780Z,101585.69
2022-12-31T14:31:50.575Z,101589.69
2022-12-31T14:35:25.529Z,101585.78
2022-12-31T14:38:51.555Z,101583.00
2022-12-31T14:42:39.363Z,101581.63
2022-12-31T14:45:55.552Z,101590.00
2022-12-31T14:49:17.108Z,101598.16
2022-12-31T14:52:30.257Z,101598.75
2022-12-31T14:55:54.507Z,101603.94
2022-12-31T14:59:03.559Z,101591.78
2022-12-31T15:02:27.901Z,101575.63
2022-12-31T15:05:43.998Z,101584.31
2022-12-31T15:09:16.480Z,101583.50
2022-12-31T15:12:36.483Z,101588.59
2022-12-31T15:16:14.361Z,101591.97
2022-12-31T15:19:55.723Z,101580.72
2022-12-31T15:22:59.177Z,101586.59
2022-12-31T15:26:22.036Z,101578.63
2022-12-31T15:29:47.475Z,101583.69
2022-12-31T15:32:53.479Z,101585.06
2022-12-31T15:36:30.776Z,101582.37
2022-12-31T15:39:43.049Z,101571.78
2022-12-31T15:42:59.508Z,101573.50
2022-12-31T15:46:22.488Z,101578.56
2022-12-31T15:49:40.936Z,101576.78
2022-12-31T15:52:57.224Z,101577.25
2022-12-31T15:56:21.825Z,101569.19
2022-12-31T15:59:29.740Z,101593.22
2022-12-31T16:02:43.567Z,101600.78
2022-12-31T16:06:04.738Z,101594.50
2022-12-31T16:09:25.579Z,101595.28
2022-12-31T16:12:44.707Z,101591.69
2022-12-31T16:15:53.677Z,101595.97
2022-12-31T16:19:07.485Z,101591.59
2022-12-31T16:22:31.500Z,101595.66
2022-12-31T16:25:46.448Z,101600.84
2022-12-31T16:28:50.212Z,101596.56
2022-12-31T16:32:03.270Z,101609.41
2022-12-31T16:35:32.484Z,101599.94
2022-12-31T16:38:42.637Z,101599.06
2022-12-31T16:41:54.531Z,101588.97
2022-12-31T16:45:31.402Z,101588.44
2022-12-31T16:48:59.566Z,101590.13
2022-12-31T16:52:22.639Z,101595.56
2022-12-31T16:55:34.910Z,101604.41
2022-12-31T16:58:47.643Z,101604.66
2022-12-31T17:01:57.978Z,101613.56
2022-12-31T17:05:05.772Z,101609.66
2022-12-31T17:08:27.496Z,101601.25
2022-12-31T17:11:30.628Z,101594.50
2022-12-31T17:14:49.451Z,101600.34
2022-12-31T17:18:04.502Z,101583.72
2022-12-31T17:21:14.511Z,101597.00
2022-12-31T17:24:29.731Z,101610.59
2022-12-31T17:27:39.618Z,101603.63
2022-12-31T17:30:51.472Z,101608.47
2022-12-31T17:34:35.544Z,101617.81
2022-12-31T17:37:48.618Z,101616.56
2022-12-31T17:41:04.353Z,101621.62
2022-12-31T17:44:24.577Z,101624.78
2022-12-31T17:47:40.456Z,101631.28
2022-12-31T17:50:55.377Z,101636.56
2022-12-31T17:54:16.660Z,101628.25
2022-12-31T17:57:31.460Z,101629.47
2022-12-31T18:00:39.460Z,101635.78
2022-12-31T18:03:52.020Z,101640.94
2022-12-31T18:06:56.476Z,101647.94
2022-12-31T18:10:07.172Z,101643.00
2022-12-31T18:13:18.567Z,101647.28
2022-12-31T18:16:35.181Z,101644.78
2022-12-31T18:23:20.489Z,101633.09
2022-12-31T18:26:24.460Z,101638.25
2022-12-31T18:29:40.391Z,101636.69
2022-12-31T18:32:47.558Z,101628.38
2022-12-31T18:36:08.666Z,101633.31
2022-12-31T18:39:13.387Z,101627.72
2022-12-31T18:42:23.446Z,101631.31
2022-12-31T18:45:33.821Z,101630.84
2022-12-31T18:48:44.415Z,101632.19
2022-12-31T18:51:54.286Z,101635.06
2022-12-31T18:54:58.985Z,101631.91
2022-12-31T18:58:10.379Z,101631.69
2022-12-31T19:01:30.247Z,101646.50
2022-12-31T19:04:37.633Z,101644.81
2022-12-31T19:07:48.457Z,101651.69
2022-12-31T19:10:58.829Z,101658.09
2022-12-31T19:14:06.036Z,101652.38
2022-12-31T19:17:15.430Z,101650.69
2022-12-31T19:20:27.686Z,101644.06
2022-12-31T19:23:42.506Z,101646.19
2022-12-31T19:26:54.508Z,101649.31
2022-12-31T19:30:05.659Z,101654.16
2022-12-31T19:33:16.545Z,101654.03
2022-12-31T19:36:24.911Z,101670.31
2022-12-31T19:39:30.741Z,101663.22
2022-12-31T19:42:45.309Z,101670.19
2022-12-31T19:45:56.468Z,101669.06
2022-12-31T19:49:01.682Z,101653.09
2022-12-31T19:52:07.480Z,101652.62
2022-12-31T19:55:19.604Z,101642.63
2022-12-31T19:58:33.430Z,101637.63
2022-12-31T20:01:38.561Z,101635.09
2022-12-31T20:04:53.094Z,101644.28
2022-12-31T20:07:57.719Z,101656.97
2022-12-31T20:11:12.434Z,101672.44
2022-12-31T20:14:22.851Z,101667.41
2022-12-31T20:17:27.719Z,101648.75
2022-12-31T20:20:31.862Z,101647.19
2022-12-31T20:23:36.532Z,101655.22
2022-12-31T20:26:49.439Z,101641.84
2022-12-31T20:29:53.507Z,101648.56
2022-12-31T20:32:58.407Z,101643.94
2022-12-31T20:36:05.085Z,101643.94
2022-12-31T20:39:15.860Z,101638.53
2022-12-31T20:42:20.147Z,101641.91
2022-12-31T20:45:32.543Z,101629.13
2022-12-31T20:48:38.520Z,101641.00
2022-12-31T20:51:52.220Z,101641.78
2022-12-31T20:54:57.520Z,101635.59
2022-12-31T20:58:01.844Z,101638.31
2022-12-31T21:01:08.693Z,101638.97
2022-12-31T21:04:24.465Z,101626.34
2022-12-31T21:07:42.532Z,101620.72
2022-12-31T21:10:51.145Z,101622.50
2022-12-31T21:13:56.775Z,101624.97
2022-12-31T21:17:00.404Z,101637.22
2022-12-31T21:20:07.592Z,101636.81
2022-12-31T21:23:20.448Z,101638.22
2022-12-31T21:26:28.987Z,101630.13
2022-12-31T21:30:02.005Z,101631.56
2022-12-31T21:33:06.832Z,101645.38
2022-12-31T21:36:12.497Z,101642.00
2022-12-31T21:39:22.307Z,101640.09
2022-12-31T21:42:28.475Z,101653.09
2022-12-31T21:45:34.531Z,101653.22
2022-12-31T21:48:42.177Z,101659.66
2022-12-31T21:52:06.608Z,101665.19
2022-12-31T21:55:38.499Z,101664.81
2022-12-31T21:58:44.294Z,101665.47
2022-12-31T22:02:07.480Z,101663.00
2022-12-31T22:05:21.436Z,101666.50
2022-12-31T22:08:38.473Z,101680.72
2022-12-31T22:11:42.938Z,101684.06
2022-12-31T22:15:15.796Z,101688.31
2022-12-31T22:18:24.079Z,101684.72
2022-12-31T22:21:29.640Z,101683.53
2022-12-31T22:24:35.566Z,101672.06
2022-12-31T22:28:27.464Z,101674.78
2022-12-31T22:31:29.319Z,101674.22
2022-12-31T22:34:32.117Z,101668.47
2022-12-31T22:41:07.381Z,101671.59
2022-12-31T22:44:13.924Z,101677.69
2022-12-31T22:47:18.877Z,101672.78
2022-12-31T22:50:24.019Z,101678.06
2022-12-31T22:53:27.555Z,101673.16
2022-12-31T22:56:32.591Z,101680.00
2022-12-31T22:59:40.619Z,101677.81
2022-12-31T23:02:45.065Z,101673.38
2022-12-31T23:05:53.063Z,101655.75
2022-12-31T23:09:15.632Z,101650.22
2022-12-31T23:12:20.378Z,101655.13
2022-12-31T23:15:47.506Z,101660.81
2022-12-31T23:19:15.382Z,101670.34
2022-12-31T23:22:40.461Z,101672.91
2022-12-31T23:25:53.405Z,101660.03
2022-12-31T23:28:59.375Z,101663.50
2022-12-31T23:32:03.450Z,101656.72
2022-12-31T23:35:09.983Z,101666.78
2022-12-31T23:38:17.876Z,101660.87
2022-12-31T23:41:22.194Z,101674.28
2022-12-31T23:44:26.732Z,101675.94
2022-12-31T23:47:32.429Z,101663.06
2022-12-31T23:50:35.917Z,101670.16
2022-12-31T23:53:39.680Z,101673.75
2022-12-31T23:56:46.688Z,101662.41
2022-12-31T23:59:57.887Z,101662.78
